createdAt,value
2018-05-27T00:01:46.557Z,12.30
2018-05-27T00:04:14.257Z,4.77
2018-05-27T00:06:42.787Z,4.87
2018-05-27T00:09:10.512Z,7.90
2018-05-27T00:11:38.228Z,10.80
2018-05-27T00:14:06.091Z,8.80
2018-05-27T00:16:33.785Z,5.47
2018-05-27T00:19:02.234Z,4.87
2018-05-27T00:21:30.028Z,4.43
2018-05-27T00:23:58.505Z,9.40
2018-05-27T00:26:26.965Z,5.00
2018-05-27T00:28:54.698Z,4.93
2018-05-27T00:31:23.205Z,4.83
2018-05-27T00:33:50.937Z,5.93
2018-05-27T00:36:18.642Z,10.63
2018-05-27T00:38:46.383Z,7.80
2018-05-27T00:41:14.123Z,10.90
2018-05-27T00:43:41.909Z,11.00
2018-05-27T00:46:09.611Z,6.10
2018-05-27T00:48:38.081Z,7.70
2018-05-27T00:51:06.589Z,3.90
2018-05-27T00:54:00.126Z,4.87
2018-05-27T00:56:28.662Z,6.20
2018-05-27T00:58:56.377Z,8.40
2018-05-27T01:01:24.995Z,8.83
2018-05-27T01:03:52.788Z,5.10
2018-05-27T01:06:20.549Z,4.27
2018-05-27T01:08:48.305Z,5.13
2018-05-27T01:11:16.039Z,6.23
2018-05-27T01:13:43.751Z,10.73
2018-05-27T01:16:11.502Z,6.20
2018-05-27T01:18:39.206Z,8.23
2018-05-27T01:21:07.717Z,7.93
2018-05-27T01:23:35.418Z,5.53
2018-05-27T01:26:03.193Z,5.80
2018-05-27T01:28:30.908Z,4.10
2018-05-27T01:30:58.731Z,7.03
2018-05-27T01:33:27.203Z,5.20
2018-05-27T01:35:55.678Z,5.30
2018-05-27T01:38:23.763Z,12.33
2018-05-27T01:40:52.244Z,7.27
2018-05-27T01:43:20.726Z,5.83
2018-05-27T01:45:49.244Z,14.13
2018-05-27T01:48:16.940Z,8.77
2018-05-27T01:50:44.654Z,7.50
2018-05-27T01:53:12.395Z,8.80
2018-05-27T01:55:40.968Z,5.80
2018-05-27T01:58:09.440Z,5.73
2018-05-27T02:00:37.923Z,6.67
2018-05-27T02:03:06.426Z,8.73
2018-05-27T02:05:34.127Z,8.50
2018-05-27T02:08:01.857Z,8.27
2018-05-27T02:10:29.601Z,5.23
2018-05-27T02:12:58.096Z,6.43
2018-05-27T02:15:25.803Z,9.90
2018-05-27T02:17:53.636Z,11.23
2018-05-27T02:20:21.336Z,6.43
2018-05-27T02:22:49.037Z,10.43
2018-05-27T02:25:17.547Z,8.70
2018-05-27T02:27:45.326Z,7.43
2018-05-27T02:30:13.031Z,7.10
2018-05-27T02:32:41.495Z,6.20
2018-05-27T02:35:09.237Z,17.57
2018-05-27T02:37:36.931Z,10.90
2018-05-27T02:40:05.790Z,8.60
2018-05-27T02:42:33.510Z,9.83
2018-05-27T02:45:01.232Z,7.10
2018-05-27T02:47:29.959Z,8.27
2018-05-27T02:49:57.665Z,8.37
2018-05-27T02:52:25.412Z,8.27
2018-05-27T02:54:53.130Z,12.03
2018-05-27T02:57:21.136Z,8.67
2018-05-27T02:59:48.848Z,12.93
2018-05-27T03:02:17.509Z,12.17
2018-05-27T03:04:45.248Z,7.80
2018-05-27T03:07:13.476Z,8.07
2018-05-27T03:09:41.978Z,14.87
2018-05-27T03:12:09.700Z,13.77
2018-05-27T03:14:37.551Z,10.43
2018-05-27T03:17:05.265Z,8.50
2018-05-27T03:19:32.975Z,8.30
2018-05-27T03:22:00.853Z,9.50
2018-05-27T03:24:28.555Z,12.53
2018-05-27T03:26:56.254Z,8.13
2018-05-27T03:29:24.005Z,12.43
2018-05-27T03:31:51.733Z,8.23
2018-05-27T03:34:20.217Z,11.60
2018-05-27T03:36:48.344Z,9.77
2018-05-27T03:39:16.051Z,6.40
2018-05-27T03:41:44.520Z,9.33
2018-05-27T03:44:13.078Z,10.77
2018-05-27T03:46:40.764Z,9.23
2018-05-27T03:49:09.264Z,12.43
2018-05-27T03:51:37.115Z,8.10
2018-05-27T03:54:05.597Z,10.13
2018-05-27T03:56:34.068Z,9.40
2018-05-27T03:59:02.673Z,9.93
2018-05-27T04:01:30.376Z,8.30
2018-05-27T04:04:09.939Z,6.27
2018-05-27T04:06:49.558Z,6.97
2018-05-27T04:09:17.287Z,9.43
2018-05-27T04:11:44.980Z,9.40
2018-05-27T04:14:13.655Z,6.37
2018-05-27T04:16:41.431Z,8.30
2018-05-27T04:19:09.221Z,11.97
2018-05-27T04:21:37.688Z,10.60
2018-05-27T04:24:05.426Z,9.00
2018-05-27T04:26:33.124Z,6.67
2018-05-27T04:29:01.681Z,6.00
2018-05-27T04:31:29.413Z,11.70
2018-05-27T04:33:57.141Z,7.60
2018-05-27T04:36:25.603Z,7.10
2018-05-27T04:38:53.344Z,8.87
2018-05-27T04:41:21.043Z,8.43
2018-05-27T04:43:49.568Z,7.63
2018-05-27T04:46:17.268Z,9.40
2018-05-27T04:48:44.975Z,10.23
2018-05-27T04:51:12.820Z,8.50
2018-05-27T04:53:41.361Z,6.33
2018-05-27T04:56:10.099Z,6.67
2018-05-27T04:58:37.836Z,7.00
2018-05-27T05:01:06.380Z,5.87
2018-05-27T05:03:34.125Z,6.87
2018-05-27T05:06:01.845Z,11.90
2018-05-27T05:08:30.457Z,9.23
2018-05-27T05:10:58.603Z,6.30
2018-05-27T05:13:27.104Z,6.37
2018-05-27T05:15:54.805Z,9.97
2018-05-27T05:18:22.554Z,9.60
2018-05-27T05:20:50.327Z,7.23
2018-05-27T05:23:18.029Z,7.90
2018-05-27T05:25:47.732Z,7.57
2018-05-27T05:28:15.496Z,8.33
2018-05-27T05:30:44.738Z,9.70
2018-05-27T05:33:12.485Z,7.40
2018-05-27T05:35:43.733Z,7.80
2018-05-27T05:38:12.427Z,11.47
2018-05-27T05:40:40.841Z,8.77
2018-05-27T05:43:10.248Z,7.33
2018-05-27T05:45:38.040Z,8.07
2018-05-27T05:48:07.081Z,5.93
2018-05-27T05:50:45.215Z,9.87
2018-05-27T05:53:14.099Z,7.90
2018-05-27T05:55:42.054Z,6.80
2018-05-27T05:58:09.889Z,7.67
2018-05-27T06:00:38.150Z,7.90
2018-05-27T06:03:07.858Z,9.87
2018-05-27T06:05:36.384Z,10.67
2018-05-27T06:08:04.241Z,8.30
2018-05-27T06:10:33.113Z,9.70
2018-05-27T06:13:03.343Z,8.37
2018-05-27T06:15:32.120Z,9.60
2018-05-27T06:18:00.985Z,8.90
2018-05-27T06:20:28.827Z,7.73
2018-05-27T06:22:58.730Z,7.40
2018-05-27T06:25:26.566Z,8.13
2018-05-27T06:27:54.311Z,7.50
2018-05-27T06:30:22.058Z,7.33
2018-05-27T06:32:50.539Z,7.50
2018-05-27T06:35:18.360Z,6.10
2018-05-27T06:37:46.292Z,15.60
2018-05-27T06:40:14.039Z,9.60
2018-05-27T06:42:42.110Z,7.00
2018-05-27T06:45:10.756Z,9.20
2018-05-27T06:47:38.756Z,7.53
2018-05-27T06:50:08.314Z,10.07
2018-05-27T06:52:36.115Z,9.30
2018-05-27T06:55:04.591Z,10.90
2018-05-27T06:57:33.502Z,10.80
2018-05-27T07:00:01.196Z,7.77
2018-05-27T07:02:28.890Z,8.90
2018-05-27T07:04:56.678Z,8.87
2018-05-27T07:07:24.492Z,8.50
2018-05-27T07:09:52.371Z,9.30
2018-05-27T07:12:21.151Z,7.83
2018-05-27T07:14:49.749Z,9.30
2018-05-27T07:17:17.452Z,7.20
2018-05-27T07:19:45.177Z,11.20
2018-05-27T07:22:13.375Z,8.87
2018-05-27T07:24:41.855Z,14.57
2018-05-27T07:27:10.299Z,6.83
2018-05-27T07:29:38.402Z,11.17
2018-05-27T07:32:06.864Z,9.03
2018-05-27T07:34:34.620Z,10.07
2018-05-27T07:37:02.459Z,8.10
2018-05-27T07:39:30.152Z,7.37
2018-05-27T07:41:57.870Z,8.97
2018-05-27T07:44:25.626Z,8.97
2018-05-27T07:46:53.329Z,6.80
2018-05-27T07:49:21.035Z,7.67
2018-05-27T07:51:49.537Z,7.30
2018-05-27T07:54:17.287Z,9.00
2018-05-27T07:56:44.990Z,6.93
2018-05-27T07:59:12.694Z,7.93
2018-05-27T08:01:41.195Z,6.53
2018-05-27T08:04:08.884Z,9.33
2018-05-27T08:06:36.716Z,8.70
2018-05-27T08:09:05.959Z,7.57
2018-05-27T08:11:33.658Z,6.23
2018-05-27T08:14:01.389Z,6.47
2018-05-27T08:16:29.091Z,9.00
2018-05-27T08:18:56.913Z,6.17
2018-05-27T08:21:24.627Z,9.00
2018-05-27T08:23:53.106Z,8.70
2018-05-27T08:26:21.619Z,8.13
2018-05-27T08:28:49.315Z,6.07
2018-05-27T08:31:17.052Z,8.90
2018-05-27T08:33:44.761Z,9.03
2018-05-27T08:36:12.528Z,5.20
2018-05-27T08:38:40.236Z,6.70
2018-05-27T08:41:07.930Z,5.83
2018-05-27T08:43:35.793Z,6.47
2018-05-27T08:46:03.499Z,6.73
2018-05-27T08:48:31.966Z,7.60
2018-05-27T08:50:59.693Z,7.77
2018-05-27T08:53:27.557Z,8.17
2018-05-27T08:55:55.228Z,8.27
2018-05-27T08:58:22.999Z,9.67
2018-05-27T09:00:50.695Z,6.20
2018-05-27T09:03:18.402Z,6.90
2018-05-27T09:05:46.144Z,7.80
2018-05-27T09:08:14.641Z,5.47
2018-05-27T09:10:42.794Z,9.83
2018-05-27T09:13:10.545Z,6.63
2018-05-27T09:15:38.239Z,7.93
2018-05-27T09:18:06.047Z,6.90
2018-05-27T09:20:33.745Z,6.33
2018-05-27T09:23:02.213Z,6.80
2018-05-27T09:25:29.960Z,8.30
2018-05-27T09:27:57.911Z,7.10
2018-05-27T09:30:25.612Z,5.50
2018-05-27T09:32:53.460Z,11.03
2018-05-27T09:35:21.938Z,12.13
2018-05-27T09:37:49.641Z,10.33
2018-05-27T09:40:19.991Z,6.80
2018-05-27T09:42:49.408Z,6.40
2018-05-27T09:45:17.204Z,7.40
2018-05-27T09:47:45.316Z,5.90
2018-05-27T09:50:13.778Z,7.20
2018-05-27T09:52:42.304Z,5.83
2018-05-27T09:55:10.029Z,7.40
2018-05-27T09:57:38.565Z,6.07
2018-05-27T10:00:06.266Z,5.47
2018-05-27T10:02:33.963Z,6.83
2018-05-27T10:05:01.732Z,7.60
2018-05-27T10:07:29.438Z,5.13
2018-05-27T10:09:57.144Z,5.67
2018-05-27T10:12:25.655Z,6.50
2018-05-27T10:14:53.362Z,6.80
2018-05-27T10:17:21.105Z,7.83
2018-05-27T10:19:48.845Z,6.13
2018-05-27T10:22:16.588Z,7.13
2018-05-27T10:24:44.341Z,6.23
2018-05-27T10:27:12.878Z,6.83
2018-05-27T10:29:40.568Z,7.33
2018-05-27T10:32:09.049Z,7.13
2018-05-27T10:34:37.600Z,10.97
2018-05-27T10:37:05.340Z,8.27
2018-05-27T10:39:33.047Z,8.53
2018-05-27T10:42:00.894Z,6.37
2018-05-27T10:44:28.613Z,10.30
2018-05-27T10:46:56.320Z,6.00
2018-05-27T10:49:24.062Z,8.47
2018-05-27T10:51:51.783Z,5.37
2018-05-27T10:54:20.280Z,7.23
2018-05-27T10:56:47.971Z,6.27
2018-05-27T10:59:15.830Z,9.20
2018-05-27T11:01:43.532Z,5.63
2018-05-27T11:04:11.229Z,5.37
2018-05-27T11:06:39.740Z,7.17
2018-05-27T11:09:07.556Z,6.20
2018-05-27T11:11:35.400Z,6.10
2018-05-27T11:14:03.128Z,5.80
2018-05-27T11:16:30.829Z,5.53
2018-05-27T11:18:58.581Z,7.20
2018-05-27T11:21:26.292Z,7.00
2018-05-27T11:23:54.021Z,11.03
2018-05-27T11:26:21.739Z,5.57
2018-05-27T11:28:49.474Z,8.30
2018-05-27T11:31:17.951Z,5.40
2018-05-27T11:33:46.941Z,9.10
2018-05-27T11:36:15.494Z,5.07
2018-05-27T11:38:43.207Z,11.53
2018-05-27T11:41:11.083Z,7.00
2018-05-27T11:43:38.831Z,8.47
2018-05-27T11:46:06.542Z,8.03
2018-05-27T11:48:34.380Z,4.43
2018-05-27T11:51:02.109Z,5.37
2018-05-27T11:53:29.848Z,4.80
2018-05-27T11:55:57.583Z,6.87
2018-05-27T11:58:25.282Z,8.00
2018-05-27T12:00:53.129Z,7.77
2018-05-27T12:03:20.842Z,7.20
2018-05-27T12:05:48.538Z,5.37
2018-05-27T12:08:16.273Z,5.77
2018-05-27T12:10:43.979Z,5.23
2018-05-27T12:13:11.724Z,5.73
2018-05-27T12:15:39.422Z,7.00
2018-05-27T12:18:07.199Z,5.93
2018-05-27T12:20:35.684Z,7.73
2018-05-27T12:23:04.158Z,4.57
2018-05-27T12:25:32.682Z,12.57
2018-05-27T12:28:00.404Z,4.63
2018-05-27T12:30:29.017Z,5.57
2018-05-27T12:32:56.739Z,6.63
2018-05-27T12:35:25.231Z,6.10
2018-05-27T12:37:53.764Z,10.47
2018-05-27T12:40:21.479Z,6.13
2018-05-27T12:42:49.245Z,5.30
2018-05-27T12:45:17.105Z,5.00
2018-05-27T12:47:45.581Z,4.97
2018-05-27T12:50:13.298Z,5.33
2018-05-27T12:52:41.048Z,5.60
2018-05-27T12:55:09.173Z,8.67
2018-05-27T12:57:37.666Z,6.03
2018-05-27T13:00:06.191Z,7.10
2018-05-27T13:02:33.984Z,7.20
2018-05-27T13:05:01.700Z,8.37
2018-05-27T13:07:29.430Z,6.60
2018-05-27T13:09:57.935Z,6.73
2018-05-27T13:12:25.787Z,7.63
2018-05-27T13:14:53.494Z,5.30
2018-05-27T13:17:21.212Z,6.70
2018-05-27T13:19:48.993Z,7.70
2018-05-27T13:22:16.691Z,4.97
2018-05-27T13:24:44.397Z,5.90
2018-05-27T13:27:12.905Z,6.30
2018-05-27T13:29:40.627Z,5.80
2018-05-27T13:32:09.151Z,12.60
2018-05-27T13:34:36.855Z,5.20
2018-05-27T13:37:05.045Z,6.53
2018-05-27T13:39:33.515Z,6.93
2018-05-27T13:42:01.990Z,5.77
2018-05-27T13:44:29.728Z,8.23
2018-05-27T13:46:57.475Z,5.90
2018-05-27T13:49:25.319Z,5.80
2018-05-27T13:51:53.022Z,6.53
2018-05-27T13:54:20.722Z,7.80
2018-05-27T13:56:49.225Z,6.23
2018-05-27T13:59:16.963Z,8.03
2018-05-27T14:01:45.440Z,5.50
2018-05-27T14:04:13.950Z,12.17
2018-05-27T14:06:41.802Z,8.50
2018-05-27T14:09:09.616Z,5.77
2018-05-27T14:11:37.324Z,5.53
2018-05-27T14:14:05.119Z,5.73
2018-05-27T14:16:32.859Z,6.73
2018-05-27T14:19:00.569Z,6.40
2018-05-27T14:21:28.350Z,7.40
2018-05-27T14:23:56.077Z,8.53
2018-05-27T14:26:23.797Z,7.60
2018-05-27T14:28:52.298Z,6.30
2018-05-27T14:31:20.043Z,5.57
2018-05-27T14:33:47.745Z,7.37
2018-05-27T14:36:15.483Z,5.90
2018-05-27T14:38:43.191Z,4.73
2018-05-27T14:41:10.943Z,6.60
2018-05-27T14:43:38.663Z,5.57
2018-05-27T14:46:06.530Z,4.50
2018-05-27T14:48:34.235Z,6.73
2018-05-27T14:51:01.938Z,11.63
2018-05-27T14:53:30.553Z,5.50
2018-05-27T14:55:58.248Z,6.07
2018-05-27T14:58:26.710Z,6.07
2018-05-27T15:00:54.924Z,7.43
2018-05-27T15:03:23.471Z,9.17
2018-05-27T15:05:51.188Z,11.10
2018-05-27T15:08:18.890Z,10.93
2018-05-27T15:10:46.642Z,12.10
2018-05-27T15:13:14.352Z,11.83
2018-05-27T15:15:42.872Z,9.23
2018-05-27T15:18:10.576Z,14.40
2018-05-27T15:20:38.283Z,14.43
2018-05-27T15:23:06.039Z,8.90
2018-05-27T15:25:34.523Z,12.33
2018-05-27T15:28:02.268Z,10.30
2018-05-27T15:30:30.737Z,14.30
2018-05-27T15:32:58.479Z,13.33
2018-05-27T15:35:26.207Z,10.23
2018-05-27T15:37:53.956Z,12.07
2018-05-27T15:40:21.653Z,12.27
2018-05-27T15:42:49.419Z,12.17
2018-05-27T15:45:17.103Z,11.27
2018-05-27T15:47:44.815Z,10.67
2018-05-27T15:50:12.661Z,15.50
2018-05-27T15:52:40.379Z,16.70
2018-05-27T15:55:08.094Z,14.03
2018-05-27T15:57:35.844Z,25.33
2018-05-27T16:00:04.411Z,17.77
2018-05-27T16:02:32.932Z,24.27
2018-05-27T16:05:00.678Z,17.83
2018-05-27T16:07:29.149Z,15.43
2018-05-27T16:09:57.681Z,15.47
2018-05-27T16:12:25.422Z,14.60
2018-05-27T16:14:53.167Z,13.77
2018-05-27T16:17:23.444Z,13.77
2018-05-27T16:19:52.173Z,15.53
2018-05-27T16:22:20.747Z,17.97
2018-05-27T16:24:49.276Z,21.77
2018-05-27T16:27:18.731Z,19.90
2018-05-27T16:29:49.804Z,19.80
2018-05-27T16:32:17.852Z,19.97
2018-05-27T16:34:46.964Z,16.70
2018-05-27T16:37:15.375Z,14.37
2018-05-27T16:39:44.399Z,18.40
2018-05-27T16:42:16.641Z,21.00
2018-05-27T16:44:44.510Z,16.20
2018-05-27T16:47:12.627Z,20.70
2018-05-27T16:49:40.442Z,22.63
2018-05-27T16:52:09.929Z,15.80
2018-05-27T16:54:41.683Z,12.83
2018-05-27T16:57:09.511Z,14.53
2018-05-27T16:59:48.112Z,16.70
2018-05-27T17:02:18.861Z,10.97
2018-05-27T17:04:47.092Z,11.90
2018-05-27T17:07:15.930Z,8.83
2018-05-27T17:09:46.590Z,9.80
2018-05-27T17:12:19.879Z,8.63
2018-05-27T17:14:51.341Z,8.13
2018-05-27T17:17:20.291Z,10.03
2018-05-27T17:19:48.964Z,10.80
2018-05-27T17:22:17.964Z,8.63
2018-05-27T17:24:51.426Z,9.17
2018-05-27T17:27:24.228Z,8.63
2018-05-27T17:29:53.417Z,8.57
2018-05-27T17:32:21.275Z,10.10
2018-05-27T17:34:48.987Z,8.43
2018-05-27T17:37:17.138Z,9.20
2018-05-27T17:39:45.612Z,7.10
2018-05-27T17:42:14.094Z,7.50
2018-05-27T17:44:42.724Z,5.80
2018-05-27T17:47:10.452Z,6.10
2018-05-27T17:49:38.207Z,7.80
2018-05-27T17:52:06.717Z,8.73
2018-05-27T17:54:34.599Z,7.73
2018-05-27T17:57:02.299Z,12.10
2018-05-27T17:59:30.004Z,8.87
2018-05-27T18:01:57.749Z,12.00
2018-05-27T18:04:25.477Z,8.67
2018-05-27T18:06:53.676Z,10.00
2018-05-27T18:09:21.420Z,10.40
2018-05-27T18:11:49.111Z,13.30
2018-05-27T18:14:17.269Z,7.70
2018-05-27T18:16:45.761Z,7.13
2018-05-27T18:19:14.343Z,8.10
2018-05-27T18:21:43.238Z,7.53
2018-05-27T18:24:10.949Z,7.00
2018-05-27T18:26:38.909Z,6.57
2018-05-27T18:29:11.137Z,6.13
2018-05-27T18:31:43.059Z,6.40
2018-05-27T18:34:12.860Z,7.40
2018-05-27T18:36:42.551Z,8.10
2018-05-27T18:39:10.336Z,13.00
2018-05-27T18:41:38.104Z,7.20
2018-05-27T18:44:05.850Z,7.97
2018-05-27T18:46:33.551Z,9.13
2018-05-27T18:49:02.110Z,7.23
2018-05-27T18:51:29.867Z,10.10
2018-05-27T18:53:57.604Z,6.50
2018-05-27T18:56:25.327Z,8.43
2018-05-27T18:58:54.203Z,10.57
2018-05-27T19:01:22.675Z,9.83
2018-05-27T19:03:50.413Z,7.00
2018-05-27T19:06:19.434Z,7.40
2018-05-27T19:08:47.948Z,8.60
2018-05-27T19:11:15.651Z,7.70
2018-05-27T19:13:44.831Z,9.90
2018-05-27T19:16:33.053Z,8.20
2018-05-27T19:19:12.826Z,8.03
2018-05-27T19:24:50.324Z,7.80
2018-05-27T19:30:34.530Z,10.53
2018-05-27T19:36:11.414Z,9.07
2018-05-27T19:38:56.873Z,10.57
2018-05-27T19:41:26.803Z,10.00
2018-05-27T19:43:55.080Z,13.93
2018-05-27T19:46:23.495Z,10.70
2018-05-27T19:48:51.423Z,11.40
2018-05-27T19:51:19.415Z,10.60
2018-05-27T19:53:47.503Z,10.83
2018-05-27T19:56:16.925Z,18.20
2018-05-27T19:58:46.881Z,10.90
2018-05-27T20:01:16.665Z,14.90
2018-05-27T20:03:45.690Z,15.60
2018-05-27T20:06:14.990Z,12.27
2018-05-27T20:08:48.936Z,14.73
2018-05-27T20:11:16.900Z,11.90
2018-05-27T20:13:45.372Z,12.73
2018-05-27T20:16:14.029Z,10.27
2018-05-27T20:18:41.871Z,9.27
2018-05-27T20:21:10.769Z,10.90
2018-05-27T20:23:39.590Z,10.13
2018-05-27T20:26:07.361Z,9.20
2018-05-27T20:28:35.200Z,11.00
2018-05-27T20:31:02.959Z,8.00
2018-05-27T20:33:30.829Z,7.23
2018-05-27T20:35:59.090Z,6.30
2018-05-27T20:38:26.832Z,6.10
2018-05-27T20:40:54.672Z,4.93
2018-05-27T20:43:22.398Z,7.87
2018-05-27T20:45:50.134Z,5.00
2018-05-27T20:48:17.932Z,4.57
2018-05-27T20:50:45.678Z,7.73
2018-05-27T20:53:13.506Z,3.90
2018-05-27T20:55:41.269Z,4.53
2018-05-27T20:58:11.524Z,4.87
2018-05-27T21:00:40.974Z,5.90
2018-05-27T21:03:08.908Z,4.13
2018-05-27T21:05:38.062Z,6.50
2018-05-27T21:08:05.793Z,5.20
2018-05-27T21:10:36.396Z,6.27
2018-05-27T21:13:04.710Z,4.43
2018-05-27T21:15:33.195Z,5.20
2018-05-27T21:18:01.578Z,5.57
2018-05-27T21:20:29.953Z,5.03
2018-05-27T21:22:58.848Z,6.67
2018-05-27T21:25:26.695Z,5.80
2018-05-27T21:27:56.097Z,6.20
2018-05-27T21:30:25.917Z,8.83
2018-05-27T21:32:54.706Z,7.37
2018-05-27T21:35:23.312Z,6.73
2018-05-27T21:37:51.251Z,6.30
2018-05-27T21:40:19.768Z,4.87
2018-05-27T21:42:47.523Z,5.37
2018-05-27T21:45:15.292Z,5.70
2018-05-27T21:47:43.394Z,5.83
2018-05-27T21:50:11.102Z,6.60
2018-05-27T21:52:38.848Z,6.43
2018-05-27T21:55:07.340Z,8.53
2018-05-27T21:57:35.425Z,7.57
2018-05-27T22:00:03.316Z,6.27
2018-05-27T22:02:31.109Z,6.67
2018-05-27T22:04:58.861Z,8.63
2018-05-27T22:07:26.578Z,6.20
2018-05-27T22:09:54.455Z,7.13
2018-05-27T22:12:22.190Z,7.47
2018-05-27T22:14:50.713Z,11.50
2018-05-27T22:17:18.613Z,15.23
2018-05-27T22:19:46.505Z,11.80
2018-05-27T22:22:15.009Z,7.90
2018-05-27T22:24:42.740Z,9.27
2018-05-27T22:27:11.743Z,8.60
2018-05-27T22:29:40.239Z,9.53
2018-05-27T22:32:07.956Z,9.87
2018-05-27T22:34:35.716Z,8.33
2018-05-27T22:37:03.431Z,7.80
2018-05-27T22:39:31.328Z,8.43
2018-05-27T22:41:59.055Z,8.40
2018-05-27T22:44:26.763Z,13.03
2018-05-27T22:46:54.615Z,11.90
2018-05-27T22:49:22.324Z,9.23
2018-05-27T22:51:50.050Z,12.23
2018-05-27T22:54:18.219Z,8.90
2018-05-27T22:56:45.931Z,13.67
2018-05-27T22:59:13.640Z,9.97
2018-05-27T23:01:41.741Z,13.33
2018-05-27T23:04:10.276Z,9.97
2018-05-27T23:06:38.000Z,12.60
2018-05-27T23:09:06.501Z,10.97
2018-05-27T23:11:34.274Z,11.93
2018-05-27T23:14:02.001Z,10.40
2018-05-27T23:16:30.541Z,14.33
2018-05-27T23:18:58.260Z,11.77
2018-05-27T23:21:25.967Z,14.97
2018-05-27T23:23:53.725Z,11.97
2018-05-27T23:26:21.437Z,12.50
2018-05-27T23:28:49.405Z,11.23
2018-05-27T23:31:17.899Z,18.10
2018-05-27T23:33:45.620Z,10.63
2018-05-27T23:36:13.381Z,13.73
2018-05-27T23:38:41.476Z,12.30
2018-05-27T23:41:09.941Z,14.17
2018-05-27T23:43:37.665Z,12.67
2018-05-27T23:46:05.408Z,21.00
2018-05-27T23:48:33.162Z,13.37
2018-05-27T23:51:01.028Z,12.23
2018-05-27T23:53:28.749Z,12.33
2018-05-27T23:55:56.503Z,10.60
2018-05-27T23:58:24.248Z,12.40
